Time;durP1;ratioP1;P1;durP2;ratioP2;P2;SDS_P1;SDS_P2;PMS_P1;PMS_P2;Temp;Humidity;BMP_temperature;BMP_pressure;BME280_temperature;BME280_humidity;BME280_pressure;Samples;Min_cycle;Max_cycle;Signal;HPM_P1;HPM_P2
2022/06/03 00:02:42;;;;;;;0.40;0.20;;;15.40;99.90;;;;;;4887631;29;20748;-67
2022/06/03 00:05:20;;;;;;;0.40;0.20;;;15.30;99.90;;;;;;4895407;29;20415;-67
2022/06/03 00:08:13;;;;;;;0.40;0.30;;;15.40;99.90;;;;;;4895368;29;20454;-68
2022/06/03 00:10:44;;;;;;;0.50;0.50;;;15.30;99.90;;;;;;4895699;29;20414;-67
2022/06/03 00:13:28;;;;;;;0.40;0.30;;;15.20;99.90;;;;;;4894993;29;20442;-67
2022/06/03 00:16:31;;;;;;;0.40;0.20;;;15.20;99.90;;;;;;4895030;29;20407;-68
2022/06/03 00:19:41;;;;;;;0.40;0.30;;;15.20;99.90;;;;;;4894972;29;20406;-68
2022/06/03 00:22:35;;;;;;;0.40;0.30;;;15.10;99.90;;;;;;4895200;29;20399;-67
2022/06/03 00:25:32;;;;;;;0.40;0.20;;;15.10;99.90;;;;;;4894370;29;20919;-67
2022/06/03 00:28:05;;;;;;;0.40;0.20;;;15.10;99.90;;;;;;4894546;29;20915;-68
2022/06/03 00:30:50;;;;;;;1.20;0.70;;;15.00;99.90;;;;;;4895304;29;20438;-67
2022/06/03 00:33:41;;;;;;;0.40;0.20;;;15.00;99.90;;;;;;4895858;29;20473;-67
2022/06/03 00:36:31;;;;;;;0.40;0.20;;;14.90;99.90;;;;;;4876393;29;21073;-67
2022/06/03 00:39:20;;;;;;;0.40;0.20;;;15.00;99.90;;;;;;4889274;29;20896;-67
2022/06/03 00:42:07;;;;;;;0.40;0.20;;;15.00;99.90;;;;;;4895324;29;20949;-68
2022/06/03 00:44:59;;;;;;;0.40;0.30;;;14.90;99.90;;;;;;4895215;29;20419;-67
2022/06/03 00:47:43;;;;;;;0.40;0.20;;;14.90;99.90;;;;;;4895700;29;20458;-67
2022/06/03 00:50:30;;;;;;;0.40;0.40;;;15.00;99.90;;;;;;4894903;29;20402;-67
2022/06/03 00:53:14;;;;;;;0.50;0.50;;;15.10;99.90;;;;;;4894613;29;20415;-67
2022/06/03 00:55:51;;;;;;;0.40;0.20;;;15.00;99.90;;;;;;4895378;29;20434;-68
2022/06/03 00:58:40;;;;;;;0.40;0.40;;;15.10;99.90;;;;;;4903518;29;20483;-67
2022/06/03 01:01:12;;;;;;;0.40;0.20;;;15.10;99.90;;;;;;4898132;29;20498;-67
2022/06/03 01:03:54;;;;;;;0.40;0.20;;;15.00;99.90;;;;;;4894868;29;20443;-67
2022/06/03 01:06:29;;;;;;;0.40;0.20;;;15.00;99.90;;;;;;4894337;29;20415;-67
2022/06/03 01:09:25;;;;;;;0.40;0.20;;;14.90;99.90;;;;;;4894647;29;20415;-68
2022/06/03 01:12:06;;;;;;;0.40;0.20;;;14.90;99.90;;;;;;4876183;29;20755;-68
2022/06/03 01:14:50;;;;;;;0.40;0.30;;;14.80;99.90;;;;;;4888301;29;20478;-67
2022/06/03 01:17:45;;;;;;;0.40;0.20;;;14.90;99.90;;;;;;4894201;29;20761;-67
2022/06/03 01:20:38;;;;;;;0.40;0.20;;;14.90;99.90;;;;;;4863279;29;20500;-67
2022/06/03 01:23:25;;;;;;;0.40;0.20;;;14.80;99.90;;;;;;4892002;29;20893;-68
2022/06/03 01:26:24;;;;;;;0.50;0.50;;;14.80;99.90;;;;;;4894315;29;20585;-68
2022/06/03 01:29:09;;;;;;;0.40;0.20;;;14.90;99.90;;;;;;4894694;29;20466;-68
2022/06/03 01:31:37;;;;;;;0.40;0.20;;;14.80;99.90;;;;;;4898570;29;20423;-67
2022/06/03 01:34:03;;;;;;;0.40;0.20;;;14.80;99.90;;;;;;4893922;29;20455;-68
2022/06/03 01:36:43;;;;;;;0.50;0.47;;;14.70;99.90;;;;;;4895980;29;20884;-67
2022/06/03 01:39:24;;;;;;;0.40;0.20;;;14.70;99.90;;;;;;4887356;29;21045;-67
2022/06/03 01:42:15;;;;;;;0.40;0.20;;;14.70;99.90;;;;;;4898181;29;20387;-68
2022/06/03 01:45:17;;;;;;;0.40;0.30;;;14.60;99.90;;;;;;4898559;29;20416;-67
2022/06/03 01:48:01;;;;;;;0.40;0.20;;;14.60;99.90;;;;;;4898251;29;20430;-67
2022/06/03 01:50:46;;;;;;;0.40;0.20;;;14.60;99.90;;;;;;4898286;29;20458;-68
2022/06/03 01:53:36;;;;;;;0.40;0.20;;;14.60;99.90;;;;;;4897316;29;20712;-67
2022/06/03 01:56:11;;;;;;;0.40;0.20;;;14.50;99.90;;;;;;4897581;29;20391;-67
2022/06/03 01:59:05;;;;;;;0.40;0.30;;;14.60;99.90;;;;;;4909298;29;20405;-68
2022/06/03 02:01:52;;;;;;;0.40;0.30;;;14.60;99.90;;;;;;4886665;29;20514;-67
2022/06/03 02:04:40;;;;;;;0.40;0.30;;;14.70;99.90;;;;;;4897298;29;20527;-67
2022/06/03 02:07:42;;;;;;;0.40;0.20;;;14.70;99.90;;;;;;4897076;29;20414;-68
2022/06/03 02:10:26;;;;;;;0.40;0.20;;;14.80;99.90;;;;;;4897165;29;20425;-68
2022/06/03 02:13:23;;;;;;;0.40;0.20;;;14.90;99.90;;;;;;4879246;29;20405;-68
2022/06/03 02:16:13;;;;;;;0.40;0.20;;;14.80;99.90;;;;;;4879624;29;20405;-67
2022/06/03 02:18:50;;;;;;;0.40;0.30;;;14.90;99.90;;;;;;4894611;29;20960;-67
2022/06/03 02:21:37;;;;;;;0.40;0.20;;;15.00;99.90;;;;;;4897123;29;20403;-67
2022/06/03 02:24:08;;;;;;;0.40;0.30;;;15.10;99.90;;;;;;4896655;29;20414;-68
2022/06/03 02:26:46;;;;;;;0.40;0.30;;;15.20;99.90;;;;;;4897838;29;20426;-67
2022/06/03 02:32:07;;;;;;;0.40;0.30;;;15.10;99.90;;;;;;4896684;29;20422;-68
2022/06/03 02:35:14;;;;;;;0.40;0.20;;;15.10;99.90;;;;;;4897488;29;20423;-67
2022/06/03 02:37:48;;;;;;;0.40;0.20;;;15.00;99.90;;;;;;4879120;29;20412;-67
2022/06/03 02:40:30;;;;;;;0.40;0.20;;;14.90;99.90;;;;;;4878147;29;20393;-67
2022/06/03 02:43:14;;;;;;;0.40;0.30;;;14.90;99.90;;;;;;4888031;29;20535;-69
2022/06/03 02:46:06;;;;;;;0.40;0.20;;;14.80;99.90;;;;;;4897102;29;20407;-67
2022/06/03 02:49:03;;;;;;;0.40;0.20;;;14.60;99.90;;;;;;4897711;29;20419;-67
2022/06/03 02:51:41;;;;;;;0.40;0.30;;;14.60;99.90;;;;;;4896919;29;20407;-67
2022/06/03 02:54:39;;;;;;;0.40;0.20;;;14.70;99.90;;;;;;4896432;29;20421;-67
2022/06/03 02:57:33;;;;;;;0.40;0.20;;;14.60;99.90;;;;;;4896731;29;20431;-68
2022/06/03 03:00:24;;;;;;;0.40;0.20;;;14.60;99.90;;;;;;4895944;29;20540;-68
2022/06/03 03:03:29;;;;;;;0.40;0.20;;;14.60;99.90;;;;;;4878690;29;20433;-67
2022/06/03 03:06:25;;;;;;;2.30;1.60;;;14.50;99.90;;;;;;4895399;29;20435;-68
2022/06/03 03:09:12;;;;;;;0.50;0.40;;;14.50;99.90;;;;;;4896806;29;20446;-67
2022/06/03 03:12:01;;;;;;;0.40;0.20;;;14.60;99.90;;;;;;4896565;29;20407;-67
2022/06/03 03:15:05;;;;;;;0.40;0.30;;;14.50;99.90;;;;;;4897233;29;20541;-68
2022/06/03 03:18:10;;;;;;;0.77;0.77;;;14.70;99.90;;;;;;4878041;29;20413;-67
2022/06/03 03:20:58;;;;;;;0.40;0.30;;;14.60;99.90;;;;;;4892660;29;20407;-67
2022/06/03 03:23:39;;;;;;;0.50;0.50;;;14.60;99.90;;;;;;4895769;29;20474;-68
2022/06/03 03:26:41;;;;;;;0.40;0.20;;;14.50;99.90;;;;;;4878802;29;20805;-68
2022/06/03 03:29:14;;;;;;;0.40;0.20;;;14.50;99.90;;;;;;4895560;29;20461;-67
2022/06/03 03:31:53;;;;;;;0.40;0.20;;;14.50;99.90;;;;;;4896535;29;20447;-67
2022/06/03 03:34:46;;;;;;;0.90;0.90;;;14.40;99.90;;;;;;4895740;29;20399;-67
2022/06/03 03:37:52;;;;;;;0.40;0.40;;;14.50;99.90;;;;;;4895624;29;20722;-68
2022/06/03 03:40:57;;;;;;;0.40;0.20;;;14.50;99.90;;;;;;4895596;29;20430;-67
2022/06/03 03:43:59;;;;;;;0.40;0.20;;;14.50;99.90;;;;;;4877329;29;20396;-67
2022/06/03 03:46:37;;;;;;;0.40;0.20;;;14.50;99.90;;;;;;4877686;29;20459;-67
2022/06/03 03:49:33;;;;;;;0.40;0.20;;;14.40;99.90;;;;;;4889101;29;20433;-68
2022/06/03 03:52:01;;;;;;;0.40;0.20;;;14.40;99.90;;;;;;4894976;29;20443;-68
2022/06/03 03:54:52;;;;;;;0.40;0.30;;;14.30;99.90;;;;;;4896493;29;20455;-68
2022/06/03 03:57:44;;;;;;;0.40;0.40;;;14.20;99.90;;;;;;4878054;29;20420;-67
2022/06/03 04:00:28;;;;;;;0.40;0.20;;;14.20;99.90;;;;;;4894219;29;20960;-68
2022/06/03 04:03:37;;;;;;;0.40;0.20;;;14.20;99.90;;;;;;4889634;29;20891;-68
2022/06/03 04:06:11;;;;;;;0.40;0.20;;;14.20;99.90;;;;;;4889964;29;20402;-68
2022/06/03 04:09:19;;;;;;;0.40;0.20;;;14.30;99.90;;;;;;4892164;29;20430;-67
2022/06/03 04:11:57;;;;;;;0.40;0.30;;;14.30;99.90;;;;;;4891381;29;20558;-67
2022/06/03 04:14:45;;;;;;;0.40;0.22;;;14.30;99.90;;;;;;4894298;29;20421;-67
2022/06/03 04:17:41;;;;;;;0.40;0.20;;;14.30;99.90;;;;;;4901399;29;20394;-69
2022/06/03 04:20:20;;;;;;;0.60;0.60;;;14.40;99.90;;;;;;4883953;29;20425;-69
2022/06/03 04:23:22;;;;;;;0.40;0.20;;;14.30;99.90;;;;;;4897227;29;20430;-69
2022/06/03 04:26:00;;;;;;;0.40;0.20;;;14.40;99.90;;;;;;4895614;29;20490;-69
2022/06/03 04:29:35;;;;;;;0.40;0.20;;;14.60;99.90;;;;;;4895529;29;20517;-69
2022/06/03 04:32:04;;;;;;;0.40;0.20;;;14.50;99.90;;;;;;4877674;29;20423;-70
2022/06/03 04:35:00;;;;;;;0.50;0.50;;;14.60;99.90;;;;;;4894533;29;20895;-68
2022/06/03 04:37:49;;;;;;;0.40;0.40;;;14.60;99.90;;;;;;4896380;29;20402;-68
2022/06/03 04:40:52;;;;;;;0.40;0.20;;;14.60;99.90;;;;;;4891026;29;20403;-68
2022/06/03 04:43:56;;;;;;;0.40;0.20;;;14.60;99.90;;;;;;4894255;29;20449;-69
2022/06/03 04:46:58;;;;;;;0.40;0.20;;;14.70;99.90;;;;;;4854128;29;20915;-69
2022/06/03 04:49:24;;;;;;;0.40;0.20;;;14.70;99.90;;;;;;4894925;29;20427;-69
2022/06/03 04:52:14;;;;;;;0.40;0.30;;;14.90;99.90;;;;;;4895190;29;20411;-69
2022/06/03 04:54:48;;;;;;;0.40;0.30;;;15.00;99.90;;;;;;4895335;29;20426;-69
2022/06/03 04:57:50;;;;;;;0.40;0.20;;;15.00;99.90;;;;;;4894675;29;20436;-69
2022/06/03 05:00:16;;;;;;;0.40;0.20;;;15.10;99.90;;;;;;4883061;29;20430;-69
2022/06/03 05:02:45;;;;;;;0.85;0.65;;;15.20;99.90;;;;;;4895523;29;20407;-69
2022/06/03 05:05:17;;;;;;;0.40;0.20;;;15.20;99.90;;;;;;4889552;29;20443;-69
2022/06/03 05:07:51;;;;;;;0.40;0.20;;;15.30;99.90;;;;;;4884090;29;20434;-69
2022/06/03 05:10:20;;;;;;;1.80;1.00;;;15.30;99.90;;;;;;4889749;29;21008;-69
2022/06/03 05:13:24;;;;;;;0.40;0.30;;;15.40;99.90;;;;;;4905248;29;20411;-69
2022/06/03 05:15:53;;;;;;;0.40;0.20;;;15.40;99.90;;;;;;4889378;29;20793;-69
2022/06/03 05:18:43;;;;;;;0.40;0.20;;;15.50;99.90;;;;;;4902840;29;20426;-69
2022/06/03 05:21:22;;;;;;;0.90;0.90;;;15.60;99.90;;;;;;4895301;29;20401;-70
2022/06/03 05:24:14;;;;;;;0.40;0.20;;;15.80;99.90;;;;;;4896897;29;20430;-69
2022/06/03 05:26:58;;;;;;;0.40;0.20;;;15.90;99.90;;;;;;4897650;29;20426;-69
2022/06/03 05:29:42;;;;;;;0.50;0.50;;;16.00;99.90;;;;;;4897317;29;20511;-70
2022/06/03 05:32:35;;;;;;;0.40;0.30;;;16.00;99.90;;;;;;4897713;29;20756;-70
2022/06/03 05:35:27;;;;;;;0.40;0.40;;;16.20;99.90;;;;;;4879667;29;20403;-69
2022/06/03 05:38:01;;;;;;;0.40;0.20;;;16.30;99.90;;;;;;4892138;29;20498;-69
2022/06/03 05:40:37;;;;;;;0.40;0.20;;;16.30;99.90;;;;;;4897218;29;20414;-69
2022/06/03 05:43:33;;;;;;;0.40;0.30;;;16.50;99.90;;;;;;4898023;29;20407;-70
2022/06/03 05:46:32;;;;;;;0.40;0.30;;;16.60;99.90;;;;;;4897925;29;20399;-69
2022/06/03 05:49:10;;;;;;;0.40;0.20;;;16.70;99.90;;;;;;4884185;29;20514;-69
2022/06/03 05:51:58;;;;;;;0.40;0.20;;;16.90;99.90;;;;;;4897856;29;20453;-69
2022/06/03 05:54:41;;;;;;;0.40;0.20;;;17.00;99.90;;;;;;4879181;29;20400;-69
2022/06/03 05:57:18;;;;;;;0.40;0.25;;;17.10;99.90;;;;;;4890480;29;20422;-71
2022/06/03 06:00:00;;;;;;;0.40;0.20;;;17.10;99.90;;;;;;4886014;29;20470;-69
2022/06/03 06:02:46;;;;;;;0.40;0.30;;;17.20;99.90;;;;;;4897583;29;20475;-69
2022/06/03 06:05:37;;;;;;;0.40;0.30;;;17.30;99.90;;;;;;4892852;29;20909;-70
2022/06/03 06:08:38;;;;;;;0.40;0.20;;;17.40;99.90;;;;;;4894108;29;20434;-69
2022/06/03 06:11:45;;;;;;;0.50;0.30;;;17.50;99.90;;;;;;4897838;29;20904;-69
2022/06/03 06:14:30;;;;;;;0.40;0.20;;;17.50;99.90;;;;;;4864651;29;20519;-70
2022/06/03 06:17:15;;;;;;;0.40;0.40;;;17.60;99.90;;;;;;4882380;29;20820;-70
2022/06/03 06:19:54;;;;;;;0.40;0.20;;;17.70;99.90;;;;;;4898062;29;20419;-69
2022/06/03 06:22:31;;;;;;;0.40;0.20;;;17.90;99.90;;;;;;4896895;29;20514;-70
2022/06/03 06:24:59;;;;;;;0.40;0.20;;;18.20;99.90;;;;;;4897753;29;20422;-69
2022/06/03 06:27:42;;;;;;;0.40;0.20;;;18.20;99.90;;;;;;4896439;29;20415;-70
2022/06/03 06:30:08;;;;;;;0.40;0.20;;;18.30;99.90;;;;;;4897795;29;20415;-70
2022/06/03 06:32:56;;;;;;;0.40;0.30;;;18.30;99.90;;;;;;4897084;29;20760;-69
2022/06/03 06:36:02;;;;;;;1.00;0.90;;;18.40;99.90;;;;;;4896291;29;20904;-70
2022/06/03 06:39:19;;;;;;;0.40;0.30;;;18.50;99.90;;;;;;4896505;29;20493;-68
2022/06/03 06:42:03;;;;;;;0.90;0.80;;;18.60;99.90;;;;;;4847902;29;20405;-70
2022/06/03 06:44:53;;;;;;;0.40;0.40;;;18.60;99.90;;;;;;4896606;29;20391;-70
2022/06/03 06:47:25;;;;;;;0.40;0.20;;;18.60;99.90;;;;;;4896387;29;20403;-69
2022/06/03 06:50:00;;;;;;;0.40;0.20;;;18.70;99.90;;;;;;4897024;29;20772;-69
2022/06/03 06:52:56;;;;;;;0.40;0.20;;;18.70;99.90;;;;;;4896369;29;20418;-69
2022/06/03 06:55:38;;;;;;;0.40;0.30;;;18.70;99.90;;;;;;4896384;29;20884;-70
2022/06/03 06:58:20;;;;;;;0.80;0.80;;;18.60;99.90;;;;;;4903963;29;20417;-70
2022/06/03 07:00:49;;;;;;;0.73;0.63;;;18.80;99.90;;;;;;4899749;29;20423;-70
2022/06/03 07:03:22;;;;;;;0.40;0.20;;;18.90;99.90;;;;;;4896413;29;20848;-70
2022/06/03 07:05:59;;;;;;;0.40;0.20;;;19.00;99.90;;;;;;4897433;29;20422;-70
2022/06/03 07:08:28;;;;;;;0.40;0.20;;;19.20;99.90;;;;;;4896116;29;20518;-69
2022/06/03 07:11:06;;;;;;;0.40;0.20;;;19.30;99.90;;;;;;4896843;29;20403;-70
2022/06/03 07:13:51;;;;;;;0.40;0.20;;;19.50;99.90;;;;;;4896384;29;20478;-70
2022/06/03 07:19:50;;;;;;;0.40;0.30;;;19.70;99.90;;;;;;4896091;29;20438;-70
2022/06/03 07:22:55;;;;;;;0.90;0.90;;;19.80;99.90;;;;;;4896208;29;20441;-70
2022/06/03 07:25:37;;;;;;;0.50;0.50;;;19.80;99.90;;;;;;4895676;29;20466;-70
2022/06/03 07:28:15;;;;;;;0.40;0.30;;;19.70;99.90;;;;;;4895554;29;20904;-69
2022/06/03 07:30:52;;;;;;;0.40;0.20;;;19.80;99.90;;;;;;4896759;29;20418;-68
2022/06/03 07:33:39;;;;;;;0.50;0.50;;;19.90;99.90;;;;;;4895698;29;20426;-70
2022/06/03 07:36:13;;;;;;;1.80;0.80;;;20.10;99.90;;;;;;4896780;29;20394;-69
2022/06/03 07:39:00;;;;;;;1.35;0.50;;;20.40;99.90;;;;;;4896441;29;20399;-69
2022/06/03 07:41:47;;;;;;;0.40;0.30;;;20.60;99.90;;;;;;4895766;29;20406;-69
2022/06/03 07:44:33;;;;;;;0.40;0.30;;;20.60;99.90;;;;;;4896117;29;20887;-71
2022/06/03 07:47:03;;;;;;;0.40;0.20;;;20.80;99.90;;;;;;4896594;29;20399;-69
2022/06/03 07:49:31;;;;;;;0.40;0.20;;;20.80;99.90;;;;;;4895551;29;20451;-69
2022/06/03 07:52:04;;;;;;;1.53;0.80;;;20.80;99.90;;;;;;4896144;29;20411;-69
2022/06/03 07:54:34;;;;;;;0.40;0.20;;;20.80;99.90;;;;;;4895537;29;20480;-69
2022/06/03 07:57:04;;;;;;;0.40;0.20;;;20.90;99.90;;;;;;4896237;29;20443;-69
2022/06/03 07:59:33;;;;;;;0.40;0.20;;;21.00;99.90;;;;;;4912711;29;20426;-69
2022/06/03 08:02:03;;;;;;;0.40;0.30;;;21.20;99.90;;;;;;4915272;29;20739;-68
2022/06/03 08:04:31;;;;;;;0.40;0.30;;;21.20;99.90;;;;;;4914283;29;20513;-68
2022/06/03 08:12:37;;;;;;;0.40;0.30;;;20.90;99.90;;;;;;4914251;29;20426;-67
2022/06/03 08:15:17;;;;;;;1.27;1.17;;;20.80;99.90;;;;;;4914959;29;20394;-68
2022/06/03 08:17:46;;;;;;;0.40;0.20;;;20.70;99.90;;;;;;4914960;29;20524;-69
2022/06/03 08:20:14;;;;;;;0.50;0.50;;;20.50;99.90;;;;;;4914544;29;20766;-68
2022/06/03 08:22:41;;;;;;;0.40;0.20;;;20.60;99.90;;;;;;4914469;29;20429;-68
2022/06/03 08:25:08;;;;;;;0.40;0.20;;;20.50;99.90;;;;;;4914754;29;20401;-68
2022/06/03 08:27:35;;;;;;;0.40;0.30;;;20.50;99.90;;;;;;4913939;29;21055;-69
2022/06/03 08:30:09;;;;;;;1.55;0.70;;;20.40;99.90;;;;;;4914903;29;20405;-68
2022/06/03 08:32:47;;;;;;;0.40;0.30;;;20.50;99.90;;;;;;4914065;29;20386;-69
2022/06/03 08:35:16;;;;;;;0.50;0.50;;;20.50;99.90;;;;;;4914699;29;20476;-68
2022/06/03 08:37:59;;;;;;;0.40;0.30;;;20.60;99.90;;;;;;4914257;29;20395;-69
2022/06/03 08:40:29;;;;;;;1.10;1.10;;;20.40;99.90;;;;;;4913887;29;20389;-69
2022/06/03 08:43:06;;;;;;;0.40;0.20;;;20.40;99.90;;;;;;4914918;29;20411;-68
2022/06/03 08:45:57;;;;;;;0.80;0.70;;;20.40;99.90;;;;;;4913787;29;20404;-68
2022/06/03 08:48:28;;;;;;;0.50;0.40;;;20.50;99.90;;;;;;4913560;29;20483;-69
2022/06/03 08:50:59;;;;;;;0.40;0.20;;;20.70;99.90;;;;;;4914721;29;20429;-68
2022/06/03 08:53:57;;;;;;;0.40;0.20;;;20.70;99.90;;;;;;4912521;29;20408;-69
2022/06/03 08:56:26;;;;;;;0.40;0.20;;;20.80;99.90;;;;;;4903501;29;20421;-68
2022/06/03 08:58:56;;;;;;;0.40;0.20;;;20.80;99.90;;;;;;4900845;29;20411;-68
2022/06/03 09:01:41;;;;;;;0.40;0.30;;;21.00;99.90;;;;;;4894718;29;20390;-69
2022/06/03 09:04:22;;;;;;;0.40;0.38;;;21.30;99.90;;;;;;4895700;29;20482;-68
2022/06/03 09:07:06;;;;;;;0.40;0.30;;;21.40;99.90;;;;;;4895517;29;20872;-68
2022/06/03 09:10:08;;;;;;;0.80;0.60;;;21.30;99.90;;;;;;4894283;29;20419;-68
2022/06/03 09:12:47;;;;;;;0.40;0.30;;;21.50;99.90;;;;;;4894646;29;20395;-68
2022/06/03 09:15:18;;;;;;;0.40;0.30;;;21.40;99.90;;;;;;4895465;29;20399;-68
2022/06/03 09:17:49;;;;;;;0.40;0.20;;;21.40;99.90;;;;;;4894995;29;20458;-67
2022/06/03 09:20:28;;;;;;;0.40;0.30;;;21.30;99.90;;;;;;4895357;29;20395;-67
2022/06/03 09:23:11;;;;;;;0.50;0.50;;;21.20;99.90;;;;;;4895004;29;20890;-67
2022/06/03 09:25:50;;;;;;;0.50;0.50;;;21.00;99.90;;;;;;4894401;29;20845;-68
2022/06/03 09:28:28;;;;;;;0.70;0.60;;;21.00;99.90;;;;;;4895028;29;20442;-68
2022/06/03 09:30:59;;;;;;;0.40;0.30;;;20.90;99.90;;;;;;4895157;29;20478;-68
2022/06/03 09:33:27;;;;;;;0.40;0.20;;;20.30;99.90;;;;;;4894501;29;20414;-68
2022/06/03 09:35:56;;;;;;;0.40;0.20;;;20.10;99.90;;;;;;4895235;29;20387;-68
2022/06/03 09:38:25;;;;;;;1.20;1.10;;;20.00;99.90;;;;;;4894575;29;20562;-68
2022/06/03 09:40:55;;;;;;;0.40;0.30;;;19.90;99.90;;;;;;4895174;29;20402;-69
2022/06/03 09:43:36;;;;;;;0.40;0.20;;;19.90;99.90;;;;;;4894733;29;20404;-70
2022/06/03 09:46:05;;;;;;;0.40;0.20;;;19.90;99.90;;;;;;4895134;29;20470;-67
2022/06/03 09:48:34;;;;;;;0.40;0.30;;;19.90;99.90;;;;;;4894399;29;20454;-68
2022/06/03 09:51:55;;;;;;;0.40;0.20;;;19.90;99.90;;;;;;4896593;29;20391;-68
2022/06/03 09:54:10;;;;;;;4.45;4.05;;;19.80;99.90;;;;;;4897977;29;20521;-69
2022/06/03 09:56:38;;;;;;;0.40;0.30;;;19.80;99.90;;;;;;4897651;29;20482;-69
2022/06/03 09:59:05;;;;;;;0.40;0.40;;;19.90;99.90;;;;;;4912602;29;20409;-68
2022/06/03 10:01:31;;;;;;;1.40;1.10;;;20.10;99.90;;;;;;4916368;29;20425;-68
2022/06/03 10:04:03;;;;;;;0.40;0.20;;;20.10;99.90;;;;;;4917275;29;20874;-68
2022/06/03 10:06:48;;;;;;;0.40;0.20;;;20.20;99.90;;;;;;4916405;29;20433;-69
2022/06/03 10:17:46;;;;;;;1.00;0.90;;;19.90;99.90;;;;;;4916233;29;21282;-68
2022/06/03 10:20:12;;;;;;;0.40;0.20;;;20.00;99.90;;;;;;4916808;29;20401;-69
2022/06/03 10:22:38;;;;;;;0.40;0.20;;;20.10;99.90;;;;;;4916079;29;20450;-69
2022/06/03 10:25:05;;;;;;;0.40;0.20;;;20.20;99.90;;;;;;4916782;29;20425;-68
2022/06/03 10:27:30;;;;;;;0.40;0.30;;;20.50;99.90;;;;;;4916044;29;20401;-69
2022/06/03 10:29:59;;;;;;;0.40;0.20;;;20.90;99.90;;;;;;4916577;29;20437;-69
2022/06/03 10:32:25;;;;;;;0.65;0.63;;;21.20;99.90;;;;;;4916144;29;20404;-70
2022/06/03 10:34:54;;;;;;;0.40;0.30;;;21.50;99.90;;;;;;4916350;29;20390;-69
2022/06/03 10:37:25;;;;;;;0.40;0.20;;;22.00;99.90;;;;;;4916849;29;20393;-68
2022/06/03 10:39:56;;;;;;;0.40;0.28;;;22.20;99.90;;;;;;4916679;29;20396;-67
2022/06/03 10:42:23;;;;;;;0.90;0.90;;;22.10;99.90;;;;;;4916497;29;20397;-68
2022/06/03 10:44:54;;;;;;;0.40;0.30;;;22.40;99.90;;;;;;4915942;29;20424;-69
2022/06/03 10:47:32;;;;;;;0.80;0.80;;;22.70;99.90;;;;;;4914848;29;20401;-68
2022/06/03 10:50:01;;;;;;;0.80;0.80;;;23.00;99.90;;;;;;4916394;29;20460;-69
2022/06/03 11:03:33;;;;;;;0.40;0.20;;;21.80;99.90;;;;;;4885978;29;20402;-69
2022/06/03 11:06:10;;;;;;;0.40;0.20;;;21.70;99.90;;;;;;4896617;29;20403;-68
2022/06/03 11:08:59;;;;;;;0.70;0.70;;;21.60;99.90;;;;;;4888210;29;20432;-69
2022/06/03 11:11:44;;;;;;;0.40;0.38;;;21.50;99.90;;;;;;4899696;29;20494;-70
2022/06/03 11:14:25;;;;;;;0.40;0.40;;;21.60;99.90;;;;;;4896410;29;20410;-68
2022/06/03 11:16:59;;;;;;;0.40;0.20;;;21.70;99.90;;;;;;4895594;29;20407;-68
2022/06/03 11:19:25;;;;;;;0.40;0.30;;;21.80;99.90;;;;;;4896268;29;20406;-69
2022/06/03 11:22:12;;;;;;;0.40;0.20;;;21.90;99.90;;;;;;4895495;29;20455;-68
2022/06/03 11:24:39;;;;;;;0.40;0.40;;;21.90;99.90;;;;;;4896138;29;20395;-69
2022/06/03 11:27:10;;;;;;;0.40;0.40;;;21.90;99.90;;;;;;4896613;29;20395;-68
2022/06/03 11:29:39;;;;;;;0.40;0.20;;;22.20;99.90;;;;;;4895283;29;20430;-68
2022/06/03 11:32:08;;;;;;;0.40;0.20;;;22.50;99.90;;;;;;4898567;29;20424;-68
2022/06/03 11:34:49;;;;;;;0.50;0.40;;;22.90;99.90;;;;;;4902527;29;20757;-69
2022/06/03 11:37:21;;;;;;;0.40;0.30;;;23.00;99.90;;;;;;4888729;29;20407;-69
2022/06/03 11:40:00;;;;;;;0.40;0.30;;;23.50;99.90;;;;;;4895749;29;20399;-69
2022/06/03 11:42:52;;;;;;;0.40;0.20;;;23.80;99.90;;;;;;4896013;29;20403;-70
2022/06/03 11:45:19;;;;;;;0.40;0.30;;;24.50;99.90;;;;;;4894948;29;20410;-69
2022/06/03 11:48:10;;;;;;;0.40;0.30;;;24.60;99.90;;;;;;4895495;29;20451;-69
2022/06/03 11:50:36;;;;;;;0.40;0.30;;;24.60;99.90;;;;;;4895490;29;20398;-69
2022/06/03 11:53:03;;;;;;;0.40;0.20;;;24.40;99.90;;;;;;4894923;29;20414;-69
2022/06/03 11:55:30;;;;;;;1.80;0.80;;;24.10;99.90;;;;;;4895594;29;20399;-70
2022/06/03 11:58:31;;;;;;;0.40;0.20;;;24.00;99.90;;;;;;4895821;29;20421;-69
2022/06/03 12:01:02;;;;;;;0.40;0.35;;;24.00;99.90;;;;;;4892673;29;20431;-69
2022/06/03 12:03:40;;;;;;;0.70;0.50;;;24.00;99.90;;;;;;4895929;29;20474;-71
2022/06/03 12:06:14;;;;;;;0.50;0.40;;;23.90;99.90;;;;;;4896321;29;20405;-69
2022/06/03 12:08:45;;;;;;;0.50;0.40;;;24.10;99.90;;;;;;4895076;29;20905;-69
2022/06/03 12:14:37;;;;;;;0.40;0.22;;;24.20;99.90;;;;;;4895389;29;20929;-69
2022/06/03 12:17:12;;;;;;;0.40;0.30;;;24.00;99.90;;;;;;4896153;29;20399;-68
2022/06/03 12:19:47;;;;;;;0.60;0.50;;;23.90;99.90;;;;;;4895110;29;20498;-68
2022/06/03 12:22:19;;;;;;;0.40;0.20;;;23.70;99.90;;;;;;4895826;29;20928;-69
2022/06/03 12:24:52;;;;;;;0.40;0.28;;;23.60;99.90;;;;;;4896198;29;20395;-68
2022/06/03 12:27:37;;;;;;;0.40;0.30;;;23.60;99.90;;;;;;4899111;29;20415;-68
2022/06/03 12:30:17;;;;;;;0.40;0.30;;;23.50;99.90;;;;;;4894694;29;20438;-69
2022/06/03 12:33:08;;;;;;;0.40;0.30;;;23.40;99.90;;;;;;4894806;29;20395;-70
2022/06/03 12:35:45;;;;;;;0.40;0.30;;;23.30;99.90;;;;;;4895070;29;20399;-70
2022/06/03 12:38:19;;;;;;;0.40;0.20;;;23.30;99.90;;;;;;4895601;29;20510;-69
2022/06/03 12:40:47;;;;;;;0.40;0.30;;;23.20;99.90;;;;;;4895016;29;20395;-69
2022/06/03 12:43:29;;;;;;;0.40;0.20;;;23.30;99.90;;;;;;4895791;29;20391;-69
2022/06/03 12:45:58;;;;;;;0.40;0.30;;;23.40;99.90;;;;;;4895131;29;20414;-69
2022/06/03 12:48:51;;;;;;;0.40;0.30;;;23.50;99.90;;;;;;4895519;29;20796;-69
2022/06/03 12:51:23;;;;;;;0.40;0.30;;;23.60;99.90;;;;;;4895690;29;20403;-69
2022/06/03 12:53:52;;;;;;;0.45;0.30;;;24.00;99.90;;;;;;4894614;29;20414;-68
2022/06/03 12:56:36;;;;;;;0.40;0.20;;;24.30;99.90;;;;;;4894252;29;20717;-68
2022/06/03 12:59:20;;;;;;;0.40;0.30;;;24.70;99.90;;;;;;4909488;29;20766;-67
2022/06/03 13:02:00;;;;;;;0.40;0.20;;;24.70;99.90;;;;;;4913395;29;20429;-68
2022/06/03 13:04:42;;;;;;;0.40;0.30;;;24.70;99.90;;;;;;4914432;29;20472;-69
2022/06/03 13:07:16;;;;;;;0.40;0.20;;;24.50;99.90;;;;;;4914191;29;20405;-69
2022/06/03 13:09:51;;;;;;;0.40;0.20;;;24.90;99.90;;;;;;4913574;29;20740;-69
2022/06/03 13:12:28;;;;;;;0.40;0.20;;;25.30;99.90;;;;;;4914191;29;20465;-69
2022/06/03 13:14:54;;;;;;;0.50;0.40;;;25.40;99.90;;;;;;4913479;29;20393;-69
2022/06/03 13:20:43;;;;;;;0.40;0.30;;;26.40;99.90;;;;;;4815465;29;20435;-70
2022/06/03 13:23:38;;;;;;;0.40;0.30;;;27.00;99.60;;;;;;4890403;29;20829;-68
2022/06/03 13:26:22;;;;;;;0.60;0.50;;;26.50;99.00;;;;;;4895767;29;20411;-69
2022/06/03 13:28:54;;;;;;;0.40;0.30;;;25.80;99.90;;;;;;4898274;29;20462;-69
2022/06/03 13:31:27;;;;;;;0.40;0.20;;;25.90;99.90;;;;;;4899044;29;20422;-68
2022/06/03 13:33:59;;;;;;;0.40;0.20;;;25.60;99.90;;;;;;4898005;29;20553;-69
2022/06/03 13:36:32;;;;;;;0.40;0.20;;;26.00;99.90;;;;;;4898749;29;20473;-69
2022/06/03 13:38:58;;;;;;;0.40;0.20;;;26.30;99.90;;;;;;4896811;29;20414;-68
2022/06/03 13:44:41;;;;;;;0.40;0.30;;;26.60;98.60;;;;;;4898885;29;20406;-68
2022/06/03 13:47:13;;;;;;;0.60;0.50;;;27.60;98.40;;;;;;4898575;29;20756;-67
2022/06/03 13:50:02;;;;;;;0.40;0.30;;;27.80;95.10;;;;;;4897871;29;20526;-68
2022/06/03 13:52:33;;;;;;;0.40;0.20;;;27.10;96.90;;;;;;4896973;29;20406;-68
2022/06/03 13:55:17;;;;;;;0.50;0.40;;;26.30;98.80;;;;;;4898066;29;20485;-68
2022/06/03 13:57:51;;;;;;;0.40;0.20;;;25.50;99.90;;;;;;4905484;29;20411;-69
2022/06/03 14:00:29;;;;;;;0.40;0.40;;;25.50;99.90;;;;;;4897661;29;20505;-69
2022/06/03 14:03:16;;;;;;;0.40;0.20;;;25.10;99.90;;;;;;4897415;29;21035;-67
2022/06/03 14:05:47;;;;;;;0.40;0.20;;;25.70;99.90;;;;;;4897706;29;20854;-67
2022/06/03 14:08:15;;;;;;;0.40;0.30;;;25.40;99.90;;;;;;4898221;29;20441;-68
2022/06/03 14:10:52;;;;;;;0.50;0.40;;;26.00;99.90;;;;;;4897181;29;20410;-68
2022/06/03 14:13:32;;;;;;;0.40;0.30;;;26.00;99.90;;;;;;4897962;29;20907;-68
2022/06/03 14:16:12;;;;;;;0.40;0.20;;;25.50;99.90;;;;;;4897451;29;21007;-68
2022/06/03 14:18:50;;;;;;;0.40;0.30;;;25.50;99.90;;;;;;4897441;29;20410;-70
2022/06/03 14:21:42;;;;;;;0.40;0.20;;;25.50;99.90;;;;;;4898401;29;20402;-68
2022/06/03 14:24:26;;;;;;;0.40;0.20;;;25.50;99.90;;;;;;4898288;29;20865;-69
2022/06/03 14:27:13;;;;;;;0.40;0.20;;;25.60;99.90;;;;;;4897186;29;20433;-69
2022/06/03 14:29:50;;;;;;;0.40;0.38;;;25.70;99.90;;;;;;4897332;29;20512;-70
2022/06/03 14:32:27;;;;;;;0.40;0.20;;;25.20;99.90;;;;;;4896459;29;20407;-70
2022/06/03 14:35:05;;;;;;;0.40;0.20;;;25.20;99.90;;;;;;4896525;29;20434;-69
2022/06/03 14:38:08;;;;;;;0.40;0.22;;;25.40;99.90;;;;;;4897276;29;20399;-69
2022/06/03 14:40:36;;;;;;;0.40;0.30;;;25.50;99.90;;;;;;4897640;29;20749;-69
2022/06/03 14:43:03;;;;;;;0.40;0.20;;;25.90;99.90;;;;;;4897199;29;20387;-70